createdAt,value
2017-05-07T00:01:03.198Z,22.6
2017-05-07T00:02:12.518Z,22.58
2017-05-07T00:03:22.753Z,22.61
2017-05-07T00:04:32.958Z,22.61
2017-05-07T00:05:42.872Z,22.68
2017-05-07T00:06:53.282Z,22.72
2017-05-07T00:08:03.512Z,22.65
2017-05-07T00:09:13.117Z,22.68
2017-05-07T00:10:22.415Z,22.68
2017-05-07T00:11:32.649Z,22.67
2017-05-07T00:12:42.865Z,22.64
2017-05-07T00:13:52.161Z,22.73
2017-05-07T00:15:02.065Z,22.65
2017-05-07T00:16:11.668Z,22.75
2017-05-07T00:17:20.943Z,22.7
2017-05-07T00:18:30.884Z,22.73
2017-05-07T00:19:41.105Z,22.7
2017-05-07T00:20:51.348Z,22.72
2017-05-07T00:22:01.578Z,22.79
2017-05-07T00:23:17.771Z,22.76
2017-05-07T00:24:27.949Z,22.7
2017-05-07T00:25:37.871Z,22.76
2017-05-07T00:26:47.785Z,22.8
2017-05-07T00:27:57.998Z,22.76
2017-05-07T00:29:08.239Z,22.72
2017-05-07T00:30:18.418Z,22.76
2017-05-07T00:31:28.669Z,22.76
2017-05-07T00:32:38.929Z,22.76
2017-05-07T00:33:49.191Z,22.77
2017-05-07T00:34:58.791Z,22.77
2017-05-07T00:36:09.192Z,22.73
2017-05-07T00:37:18.485Z,22.75
2017-05-07T00:38:28.407Z,22.79
2017-05-07T00:39:38.614Z,22.8
2017-05-07T00:40:48.835Z,22.8
2017-05-07T00:41:59.112Z,22.82
2017-05-07T00:43:09.027Z,22.79
2017-05-07T00:44:18.622Z,22.85
2017-05-07T00:45:28.540Z,22.8
2017-05-07T00:46:37.842Z,22.79
2017-05-07T00:47:48.318Z,22.82
2017-05-07T00:48:58.548Z,22.82
2017-05-07T00:50:08.443Z,22.86
2017-05-07T00:51:18.341Z,22.85
2017-05-07T00:52:28.244Z,22.83
2017-05-07T00:53:38.561Z,22.85
2017-05-07T00:54:48.484Z,22.83
2017-05-07T00:55:58.427Z,22.8
2017-05-07T00:57:08.030Z,22.86
2017-05-07T00:58:18.245Z,22.8
2017-05-07T00:59:28.399Z,22.8
2017-05-07T01:00:38.304Z,22.8
2017-05-07T01:01:48.515Z,22.79
2017-05-07T01:02:58.434Z,22.85
2017-05-07T01:04:08.653Z,22.83
2017-05-07T01:05:18.773Z,22.83
2017-05-07T01:06:28.707Z,22.82
2017-05-07T01:07:38.654Z,22.83
2017-05-07T01:08:48.868Z,22.86
2017-05-07T01:09:59.085Z,22.8
2017-05-07T01:11:09.448Z,22.9
2017-05-07T01:12:19.052Z,22.85
2017-05-07T01:13:28.975Z,22.83
2017-05-07T01:14:38.877Z,22.79
2017-05-07T01:15:49.098Z,22.88
2017-05-07T01:16:59.241Z,22.82
2017-05-07T01:18:09.157Z,22.86
2017-05-07T01:19:19.071Z,22.91
2017-05-07T01:20:28.674Z,22.85
2017-05-07T01:21:38.884Z,22.91
2017-05-07T01:22:48.734Z,22.82
2017-05-07T01:23:58.641Z,22.82
2017-05-07T01:25:08.864Z,22.85
2017-05-07T01:26:19.089Z,22.83
2017-05-07T01:27:29.001Z,22.82
2017-05-07T01:28:39.479Z,22.86
2017-05-07T01:29:49.392Z,22.85
2017-05-07T01:30:59.339Z,22.85
2017-05-07T01:32:09.269Z,22.85
2017-05-07T01:33:19.191Z,22.83
2017-05-07T01:34:29.097Z,22.85
2017-05-07T01:35:39.003Z,22.86
2017-05-07T01:36:48.911Z,22.8
2017-05-07T01:37:59.137Z,22.86
2017-05-07T01:39:09.362Z,22.82
2017-05-07T01:40:19.835Z,22.85
2017-05-07T01:41:29.749Z,22.86
2017-05-07T01:42:39.959Z,22.86
2017-05-07T01:43:49.903Z,22.86
2017-05-07T01:44:59.815Z,22.8
2017-05-07T01:46:10.029Z,22.85
2017-05-07T01:47:20.255Z,22.79
2017-05-07T01:48:29.843Z,22.83
2017-05-07T01:49:39.128Z,22.91
2017-05-07T01:50:49.367Z,22.77
2017-05-07T01:51:59.512Z,22.86
2017-05-07T01:53:09.736Z,22.83
2017-05-07T01:54:19.026Z,22.8
2017-05-07T01:55:29.268Z,22.82
2017-05-07T01:56:39.178Z,22.79
2017-05-07T01:57:49.341Z,22.83
2017-05-07T01:58:59.554Z,22.85
2017-05-07T02:00:09.769Z,22.85
2017-05-07T02:01:19.392Z,22.82
2017-05-07T02:02:29.607Z,22.85
2017-05-07T02:03:39.669Z,22.86
2017-05-07T02:04:49.577Z,22.82
2017-05-07T02:05:59.490Z,22.82
2017-05-07T02:07:09.443Z,22.85
2017-05-07T02:08:18.739Z,22.82
2017-05-07T02:09:29.218Z,22.77
2017-05-07T02:10:39.432Z,22.83
2017-05-07T02:11:49.663Z,22.82
2017-05-07T02:12:59.863Z,22.79
2017-05-07T02:14:09.764Z,22.8
2017-05-07T02:15:20.134Z,22.79
2017-05-07T02:16:30.357Z,22.79
2017-05-07T02:17:39.968Z,22.82
2017-05-07T02:18:49.870Z,22.82
2017-05-07T02:19:59.799Z,22.85
2017-05-07T02:21:09.569Z,22.8
2017-05-07T02:22:19.472Z,22.8
2017-05-07T02:23:29.689Z,22.79
2017-05-07T02:24:39.898Z,22.79
2017-05-07T02:25:49.796Z,22.77
2017-05-07T02:26:59.852Z,22.82
2017-05-07T02:28:09.451Z,22.8
2017-05-07T02:29:19.699Z,22.83
2017-05-07T02:30:29.601Z,22.76
2017-05-07T02:31:39.816Z,22.85
2017-05-07T02:32:49.783Z,22.73
2017-05-07T02:33:59.430Z,22.77
2017-05-07T02:35:09.640Z,22.85
2017-05-07T02:36:19.846Z,22.82
2017-05-07T02:37:30.051Z,22.8
2017-05-07T02:38:40.564Z,22.73
2017-05-07T02:39:50.794Z,22.82
2017-05-07T02:41:00.688Z,22.79
2017-05-07T02:42:09.986Z,22.8
2017-05-07T02:43:20.202Z,22.73
2017-05-07T02:44:29.750Z,22.79
2017-05-07T02:45:39.680Z,22.77
2017-05-07T02:46:48.979Z,22.76
2017-05-07T02:47:58.884Z,22.83
2017-05-07T02:49:08.799Z,22.83
2017-05-07T02:50:19.018Z,22.73
2017-05-07T02:51:29.266Z,22.79
2017-05-07T02:52:39.176Z,22.8
2017-05-07T02:53:48.777Z,22.79
2017-05-07T02:54:58.371Z,22.79
2017-05-07T02:56:08.132Z,22.79
2017-05-07T02:57:18.339Z,22.73
2017-05-07T02:58:28.554Z,22.82
2017-05-07T02:59:38.762Z,22.82
2017-05-07T03:00:48.351Z,22.86
2017-05-07T03:01:58.397Z,22.83
2017-05-07T03:03:07.996Z,22.76
2017-05-07T03:04:17.903Z,22.77
2017-05-07T03:05:28.115Z,22.76
2017-05-07T03:06:38.318Z,22.73
2017-05-07T03:07:48.681Z,22.82
2017-05-07T03:08:58.643Z,22.72
2017-05-07T03:10:07.931Z,22.8
2017-05-07T03:11:18.155Z,22.77
2017-05-07T03:12:28.062Z,22.8
2017-05-07T03:13:38.121Z,22.76
2017-05-07T03:14:48.035Z,22.79
2017-05-07T03:15:58.234Z,22.8
2017-05-07T03:17:08.439Z,22.77
2017-05-07T03:18:17.728Z,22.75
2017-05-07T03:19:27.725Z,22.8
2017-05-07T03:20:37.940Z,22.83
2017-05-07T03:21:47.839Z,22.76
2017-05-07T03:22:57.142Z,22.76
2017-05-07T03:24:07.041Z,22.8
2017-05-07T03:25:17.043Z,22.8
2017-05-07T03:26:26.023Z,22.76
2017-05-07T03:27:35.603Z,22.76
2017-05-07T03:28:45.543Z,22.75
2017-05-07T03:29:55.786Z,22.76
2017-05-07T03:31:05.799Z,22.76
2017-05-07T03:32:15.707Z,22.77
2017-05-07T03:33:25.681Z,22.85
2017-05-07T03:34:34.980Z,22.77
2017-05-07T03:35:45.190Z,22.79
2017-05-07T03:36:55.512Z,22.86
2017-05-07T03:38:05.749Z,22.77
2017-05-07T03:39:15.357Z,22.75
2017-05-07T03:40:25.266Z,22.76
2017-05-07T03:41:35.164Z,22.72
2017-05-07T03:42:45.532Z,22.77
2017-05-07T03:43:55.439Z,22.7
2017-05-07T03:45:05.652Z,22.8
2017-05-07T03:46:14.634Z,22.76
2017-05-07T03:47:24.856Z,22.75
2017-05-07T03:48:35.600Z,22.7
2017-05-07T03:49:45.523Z,22.77
2017-05-07T03:50:55.426Z,22.75
2017-05-07T03:52:05.337Z,22.72
2017-05-07T03:53:15.237Z,22.67
2017-05-07T03:54:25.293Z,22.77
2017-05-07T03:55:35.196Z,22.76
2017-05-07T03:56:44.808Z,22.7
2017-05-07T03:57:54.408Z,22.79
2017-05-07T03:59:04.686Z,22.79
2017-05-07T04:00:15.042Z,22.68
2017-05-07T04:01:25.001Z,22.76
2017-05-07T04:02:34.912Z,22.79
2017-05-07T04:03:44.836Z,22.75
2017-05-07T04:04:54.434Z,22.79
2017-05-07T04:06:04.194Z,22.7
2017-05-07T04:07:13.477Z,22.72
2017-05-07T04:08:23.391Z,22.73
2017-05-07T04:09:33.613Z,22.77
2017-05-07T04:10:43.522Z,22.76
2017-05-07T04:11:53.904Z,22.77
2017-05-07T04:13:03.511Z,22.79
2017-05-07T04:14:13.107Z,22.76
2017-05-07T04:15:23.323Z,22.75
2017-05-07T04:16:33.540Z,22.72
2017-05-07T04:17:42.674Z,22.75
2017-05-07T04:18:52.909Z,22.75
2017-05-07T04:20:02.225Z,22.79
2017-05-07T04:21:12.427Z,22.75
2017-05-07T04:22:22.346Z,22.85
2017-05-07T04:23:32.825Z,22.8
2017-05-07T04:24:43.035Z,22.82
2017-05-07T04:25:52.938Z,22.79
2017-05-07T04:27:03.179Z,22.79
2017-05-07T04:28:13.396Z,22.72
2017-05-07T04:29:23.453Z,22.76
2017-05-07T04:30:33.348Z,22.83
2017-05-07T04:31:43.563Z,22.77
2017-05-07T04:32:53.186Z,22.75
2017-05-07T04:34:03.095Z,22.76
2017-05-07T04:35:12.859Z,22.72
2017-05-07T04:36:22.490Z,22.8
2017-05-07T04:37:32.409Z,22.77
2017-05-07T04:38:42.666Z,22.86
2017-05-07T04:39:52.883Z,22.76
2017-05-07T04:41:03.249Z,22.8
2017-05-07T04:42:12.541Z,22.82
2017-05-07T04:43:22.745Z,22.77
2017-05-07T04:44:33.032Z,22.82
2017-05-07T04:45:42.938Z,22.82
2017-05-07T04:46:53.305Z,22.82
2017-05-07T04:48:03.262Z,22.82
2017-05-07T04:49:12.550Z,22.83
2017-05-07T04:50:22.832Z,22.83
2017-05-07T04:51:32.265Z,22.82
2017-05-07T04:52:43.333Z,22.86
2017-05-07T04:53:54.417Z,22.82
2017-05-07T04:55:04.041Z,22.86
2017-05-07T04:56:13.638Z,22.85
2017-05-07T04:57:22.948Z,22.86
2017-05-07T04:58:32.821Z,22.88
2017-05-07T04:59:42.572Z,22.9
2017-05-07T05:00:52.588Z,22.9
2017-05-07T05:02:01.587Z,22.8
2017-05-07T05:03:11.820Z,22.88
2017-05-07T05:04:21.803Z,22.88
2017-05-07T05:05:32.116Z,22.83
2017-05-07T05:06:42.036Z,22.85
2017-05-07T05:07:51.956Z,22.88
2017-05-07T05:09:02.006Z,22.8
2017-05-07T05:10:12.456Z,22.88
2017-05-07T05:11:22.362Z,22.86
2017-05-07T05:12:32.265Z,22.86
2017-05-07T05:13:42.541Z,22.91
2017-05-07T05:14:52.753Z,22.9
2017-05-07T05:16:03.480Z,22.91
2017-05-07T05:17:28.641Z,22.86
2017-05-07T05:18:38.547Z,22.9
2017-05-07T05:19:48.779Z,22.9
2017-05-07T05:20:59.137Z,22.85
2017-05-07T05:22:08.737Z,22.91
2017-05-07T05:23:18.670Z,22.88
2017-05-07T05:24:28.588Z,22.86
2017-05-07T05:25:38.489Z,22.9
2017-05-07T05:26:48.188Z,22.91
2017-05-07T05:27:58.465Z,22.83
2017-05-07T05:29:08.683Z,22.92
2017-05-07T05:30:18.611Z,22.85
2017-05-07T05:31:28.833Z,22.88
2017-05-07T05:32:38.839Z,22.88
2017-05-07T05:33:48.129Z,22.92
2017-05-07T05:34:58.031Z,22.9
2017-05-07T05:36:07.963Z,22.86
2017-05-07T05:37:18.178Z,22.85
2017-05-07T05:38:28.182Z,22.92
2017-05-07T05:39:37.787Z,22.86
2017-05-07T05:40:48.000Z,22.92
2017-05-07T05:41:58.204Z,22.91
2017-05-07T05:43:08.129Z,22.9
2017-05-07T05:44:18.181Z,22.94
2017-05-07T05:45:28.080Z,22.95
2017-05-07T05:46:37.671Z,22.9
2017-05-07T05:47:47.266Z,22.97
2017-05-07T05:48:57.485Z,22.91
2017-05-07T05:50:07.500Z,22.97
2017-05-07T05:51:17.094Z,22.86
2017-05-07T05:52:27.038Z,22.95
2017-05-07T05:53:36.646Z,22.92
2017-05-07T05:54:46.553Z,22.92
2017-05-07T05:55:56.553Z,22.88
2017-05-07T05:57:05.857Z,22.9
2017-05-07T05:58:15.464Z,22.97
2017-05-07T05:59:25.679Z,23
2017-05-07T06:00:35.291Z,22.98
2017-05-07T06:01:45.616Z,23.01
2017-05-07T06:02:55.837Z,22.92
2017-05-07T06:04:06.052Z,22.94
2017-05-07T06:05:15.657Z,22.98
2017-05-07T06:06:25.558Z,22.97
2017-05-07T06:07:35.868Z,22.98
2017-05-07T06:08:45.169Z,23
2017-05-07T06:09:55.380Z,22.97
2017-05-07T06:11:05.289Z,22.95
2017-05-07T06:12:15.192Z,23
2017-05-07T06:13:25.094Z,22.97
2017-05-07T06:14:35.323Z,23.02
2017-05-07T06:15:44.602Z,23
2017-05-07T06:16:54.212Z,23
2017-05-07T06:18:04.421Z,23.05
2017-05-07T06:19:14.433Z,23.04
2017-05-07T06:20:24.405Z,23.04
2017-05-07T06:21:34.614Z,23.09
2017-05-07T06:22:44.569Z,23.02
2017-05-07T06:23:54.497Z,23.1
2017-05-07T06:25:04.195Z,22.98
2017-05-07T06:26:13.796Z,23.02
2017-05-07T06:27:23.450Z,23.01
2017-05-07T06:28:33.668Z,22.97
2017-05-07T06:29:43.876Z,23.04
2017-05-07T06:30:53.940Z,22.97
2017-05-07T06:32:03.635Z,23.05
2017-05-07T06:33:13.343Z,23.01
2017-05-07T06:34:22.493Z,23.04
2017-05-07T06:35:32.667Z,23.01
2017-05-07T06:36:42.649Z,22.95
2017-05-07T06:37:52.106Z,22.97
2017-05-07T06:39:01.792Z,23
2017-05-07T06:40:12.119Z,22.94
2017-05-07T06:41:22.145Z,22.97
2017-05-07T06:42:32.217Z,22.94
2017-05-07T06:43:41.854Z,22.94
2017-05-07T06:44:51.461Z,22.94
2017-05-07T06:46:01.408Z,22.98
2017-05-07T06:47:11.375Z,22.92
2017-05-07T06:48:21.257Z,22.95
2017-05-07T06:49:31.200Z,22.97
2017-05-07T06:50:40.843Z,22.97
2017-05-07T06:51:50.807Z,22.92
2017-05-07T06:53:00.735Z,23.01
2017-05-07T06:54:11.129Z,22.97
2017-05-07T06:55:21.069Z,22.95
2017-05-07T06:56:30.701Z,23.02
2017-05-07T06:57:40.641Z,22.95
2017-05-07T06:58:50.947Z,23.02
2017-05-07T07:00:01.348Z,22.94
2017-05-07T07:01:11.576Z,22.98
2017-05-07T07:02:21.527Z,23.01
2017-05-07T07:03:31.456Z,23.01
2017-05-07T07:04:41.412Z,23.02
2017-05-07T07:05:51.215Z,23.07
2017-05-07T07:07:01.161Z,23.02
2017-05-07T07:08:11.418Z,23.02
2017-05-07T07:09:21.384Z,22.98
2017-05-07T07:10:31.342Z,23.13
2017-05-07T07:11:40.818Z,23.04
2017-05-07T07:12:50.444Z,23.04
2017-05-07T07:14:00.072Z,23.1
2017-05-07T07:15:09.713Z,23.16
2017-05-07T07:16:19.027Z,23.09
2017-05-07T07:17:29.426Z,23.17
2017-05-07T07:18:39.350Z,23.17
2017-05-07T07:19:49.679Z,23.17
2017-05-07T07:20:59.937Z,23.25
2017-05-07T07:22:09.548Z,23.16
2017-05-07T07:23:19.959Z,23.27
2017-05-07T07:24:30.037Z,23.17
2017-05-07T07:25:40.254Z,23.22
2017-05-07T07:26:50.184Z,23.31
2017-05-07T07:28:01.206Z,23.25
2017-05-07T07:29:11.591Z,23.27
2017-05-07T07:30:21.493Z,23.39
2017-05-07T07:31:32.116Z,23.4
2017-05-07T07:32:41.111Z,23.38
2017-05-07T07:33:50.723Z,23.36
2017-05-07T07:35:00.480Z,23.39
2017-05-07T07:36:10.767Z,23.4
2017-05-07T07:37:21.035Z,23.43
2017-05-07T07:38:31.257Z,23.43
2017-05-07T07:39:41.193Z,23.5
2017-05-07T07:40:51.988Z,23.51
2017-05-07T07:42:01.990Z,23.47
2017-05-07T07:43:11.602Z,23.46
2017-05-07T07:44:21.722Z,23.5
2017-05-07T07:45:31.650Z,23.54
2017-05-07T07:46:41.193Z,23.54
2017-05-07T07:47:51.439Z,23.54
2017-05-07T07:49:01.347Z,23.58
2017-05-07T07:50:10.993Z,23.61
2017-05-07T07:51:21.202Z,23.65
2017-05-07T07:52:31.252Z,23.63
2017-05-07T07:53:41.466Z,23.76
2017-05-07T07:54:51.375Z,23.7
2017-05-07T07:56:01.307Z,23.68
2017-05-07T07:57:11.532Z,23.7
2017-05-07T07:58:21.608Z,23.83
2017-05-07T07:59:31.871Z,23.7
2017-05-07T08:00:41.485Z,23.76
2017-05-07T08:01:51.709Z,23.91
2017-05-07T08:03:01.312Z,23.85
2017-05-07T08:04:11.039Z,23.94
2017-05-07T08:05:21.275Z,23.94
2017-05-07T08:06:31.530Z,23.95
2017-05-07T08:07:41.775Z,24.03
2017-05-07T08:08:52.010Z,24.12
2017-05-07T08:10:02.065Z,24.16
2017-05-07T08:11:11.704Z,24.27
2017-05-07T08:12:21.613Z,24.32
2017-05-07T08:13:31.554Z,24.35
2017-05-07T08:14:40.877Z,24.39
2017-05-07T08:15:51.268Z,24.46
2017-05-07T08:17:01.168Z,24.57
2017-05-07T08:18:11.372Z,24.55
2017-05-07T08:19:21.271Z,24.62
2017-05-07T08:20:31.480Z,24.71
2017-05-07T08:21:41.498Z,24.76
2017-05-07T08:22:51.099Z,24.81
2017-05-07T08:24:00.681Z,24.81
2017-05-07T08:25:11.180Z,24.78
2017-05-07T08:26:21.599Z,24.87
2017-05-07T08:27:31.303Z,24.96
2017-05-07T08:28:41.527Z,25.06
2017-05-07T08:29:51.137Z,25
2017-05-07T08:31:00.753Z,25.09
2017-05-07T08:32:10.402Z,25.1
2017-05-07T08:33:20.631Z,25.13
2017-05-07T08:34:30.553Z,25.09
2017-05-07T08:35:40.777Z,25.17
2017-05-07T08:36:50.385Z,25.18
2017-05-07T08:37:59.991Z,25.17
2017-05-07T08:39:10.002Z,25.17
2017-05-07T08:40:19.897Z,25.23
2017-05-07T08:41:29.490Z,25.18
2017-05-07T08:42:39.410Z,25.24
2017-05-07T08:43:49.015Z,25.32
2017-05-07T08:44:59.182Z,25.28
2017-05-07T08:46:09.109Z,25.42
2017-05-07T08:47:19.024Z,25.36
2017-05-07T08:48:28.629Z,25.55
2017-05-07T08:49:38.541Z,25.55
2017-05-07T08:50:48.548Z,25.62
2017-05-07T08:51:58.490Z,25.7
2017-05-07T08:53:08.715Z,25.79
2017-05-07T08:54:18.039Z,25.92
2017-05-07T08:55:28.275Z,25.8
2017-05-07T08:56:38.280Z,25.62
2017-05-07T08:57:48.181Z,25.42
2017-05-07T08:58:58.430Z,25.14
2017-05-07T09:00:08.033Z,24.81
2017-05-07T09:01:17.888Z,24.32
2017-05-07T09:02:29.120Z,24.06
2017-05-07T09:03:39.061Z,23.91
2017-05-07T09:04:49.799Z,23.72
2017-05-07T09:05:59.729Z,23.54
2017-05-07T09:07:09.847Z,23.35
2017-05-07T09:08:19.684Z,23.17
2017-05-07T09:09:29.633Z,23.01
2017-05-07T09:10:39.868Z,22.94
2017-05-07T09:11:49.489Z,22.82
2017-05-07T09:12:59.825Z,22.61
2017-05-07T09:14:09.579Z,22.54
2017-05-07T09:15:19.024Z,22.42
2017-05-07T09:16:28.341Z,22.24
2017-05-07T09:17:39.064Z,22.22
2017-05-07T09:18:49.023Z,22.09
2017-05-07T09:19:59.079Z,22.02
2017-05-07T09:21:08.368Z,21.98
2017-05-07T09:22:18.283Z,21.91
2017-05-07T09:23:27.889Z,21.94
2017-05-07T09:24:38.097Z,21.96
2017-05-07T09:25:48.458Z,21.94
2017-05-07T09:26:58.668Z,21.9
2017-05-07T09:28:08.584Z,22.02
2017-05-07T09:29:18.502Z,21.98
2017-05-07T09:30:28.717Z,21.99
2017-05-07T09:31:38.179Z,22.02
2017-05-07T09:32:48.408Z,21.98
2017-05-07T09:33:58.325Z,21.96
2017-05-07T09:35:08.295Z,21.98
2017-05-07T09:36:18.506Z,21.86
2017-05-07T09:37:27.963Z,21.86
2017-05-07T09:38:37.905Z,21.91
2017-05-07T09:39:47.824Z,21.91
2017-05-07T09:40:57.745Z,21.83
2017-05-07T09:42:07.671Z,21.74
2017-05-07T09:43:18.415Z,21.72
2017-05-07T09:44:28.351Z,21.68
2017-05-07T09:45:38.580Z,21.62
2017-05-07T09:46:48.496Z,21.67
2017-05-07T09:47:58.741Z,21.68
2017-05-07T09:49:08.792Z,21.62
2017-05-07T09:50:18.720Z,21.61
2017-05-07T09:51:28.634Z,21.65
2017-05-07T09:52:38.934Z,21.64
2017-05-07T09:53:48.551Z,21.83
2017-05-07T09:54:58.326Z,21.99
2017-05-07T09:56:08.222Z,21.98
2017-05-07T09:57:17.510Z,22.2
2017-05-07T09:58:27.432Z,22.46
2017-05-07T09:59:37.646Z,22.61
2017-05-07T10:00:47.722Z,22.7
2017-05-07T10:01:57.328Z,22.8
2017-05-07T10:03:07.261Z,22.92
2017-05-07T10:04:17.175Z,23.12
2017-05-07T10:05:27.085Z,23.2
2017-05-07T10:06:37.162Z,23.38
2017-05-07T10:07:46.800Z,23.46
2017-05-07T10:08:56.745Z,23.47
2017-05-07T10:10:06.130Z,23.65
2017-05-07T10:11:16.374Z,23.7
2017-05-07T10:12:25.759Z,23.75
2017-05-07T10:13:35.422Z,23.9
2017-05-07T10:14:45.379Z,23.88
2017-05-07T10:15:55.300Z,24.02
2017-05-07T10:17:04.739Z,24.09
2017-05-07T10:18:14.904Z,24.15
2017-05-07T10:19:25.023Z,24.24
2017-05-07T10:20:34.697Z,24.12
2017-05-07T10:21:44.983Z,24.21
2017-05-07T10:22:54.914Z,24.32
2017-05-07T10:24:04.972Z,24.37
2017-05-07T10:25:14.922Z,24.31
2017-05-07T10:26:25.254Z,24.4
2017-05-07T10:27:35.573Z,24.31
2017-05-07T10:28:45.234Z,24.42
2017-05-07T10:29:55.416Z,24.49
2017-05-07T10:31:05.381Z,24.5
2017-05-07T10:32:15.005Z,24.55
2017-05-07T10:33:24.351Z,24.58
2017-05-07T10:34:34.316Z,24.61
2017-05-07T10:35:44.074Z,24.53
2017-05-07T10:36:54.033Z,24.6
2017-05-07T10:38:03.954Z,24.58
2017-05-07T10:39:13.569Z,24.67
2017-05-07T10:40:22.912Z,24.62
2017-05-07T10:41:33.043Z,24.71
2017-05-07T10:42:43.284Z,24.67
2017-05-07T10:43:53.259Z,24.68
2017-05-07T10:45:02.939Z,24.77
2017-05-07T10:46:12.553Z,24.68
2017-05-07T10:47:23.054Z,24.78
2017-05-07T10:48:32.767Z,24.77
2017-05-07T10:49:42.417Z,24.73
2017-05-07T10:50:52.139Z,24.81
2017-05-07T10:52:02.103Z,24.83
2017-05-07T10:53:12.216Z,24.73
2017-05-07T10:54:21.864Z,24.84
2017-05-07T10:55:31.790Z,24.81
2017-05-07T10:56:41.447Z,24.78
2017-05-07T10:57:51.706Z,24.8
2017-05-07T10:59:01.290Z,24.8
2017-05-07T11:00:11.226Z,24.83
2017-05-07T11:01:21.483Z,24.9
2017-05-07T11:02:31.802Z,24.78
2017-05-07T11:03:41.450Z,24.84
2017-05-07T11:04:51.892Z,24.8
2017-05-07T11:06:01.893Z,24.81
2017-05-07T11:07:12.150Z,24.81
2017-05-07T11:08:21.807Z,24.81
2017-05-07T11:09:32.043Z,24.84
2017-05-07T11:10:42.507Z,24.9
2017-05-07T11:11:51.786Z,24.9
2017-05-07T11:13:01.689Z,24.96
2017-05-07T11:14:11.587Z,24.93
2017-05-07T11:15:21.498Z,24.98
2017-05-07T11:16:31.870Z,24.87
2017-05-07T11:17:41.765Z,24.95
2017-05-07T11:18:51.724Z,24.95
2017-05-07T11:20:01.669Z,24.9
2017-05-07T11:21:11.280Z,24.9
2017-05-07T11:22:21.649Z,24.95
2017-05-07T11:23:31.292Z,24.9
2017-05-07T11:24:41.306Z,24.96
2017-05-07T11:25:51.566Z,24.99
2017-05-07T11:27:01.491Z,24.93
2017-05-07T11:28:11.881Z,24.9
2017-05-07T11:29:21.851Z,25.09
2017-05-07T11:30:31.778Z,25
2017-05-07T11:31:41.420Z,25.08
2017-05-07T11:32:51.028Z,24.95
2017-05-07T11:34:01.117Z,25.03
2017-05-07T11:35:11.324Z,25.06
2017-05-07T11:36:21.610Z,25.08
2017-05-07T11:37:31.230Z,25.09
2017-05-07T11:38:40.841Z,25.09
2017-05-07T11:39:50.929Z,25.06
2017-05-07T11:41:00.528Z,25.09
2017-05-07T11:42:10.452Z,25.08
2017-05-07T11:43:20.477Z,25.08
2017-05-07T11:44:30.091Z,25.06
2017-05-07T11:45:39.843Z,25.05
2017-05-07T11:46:49.458Z,25.08
2017-05-07T11:47:59.672Z,25.02
2017-05-07T11:49:08.958Z,24.99
2017-05-07T11:50:18.608Z,25.06
2017-05-07T11:51:28.689Z,24.98
2017-05-07T11:52:38.602Z,24.96
2017-05-07T11:53:47.596Z,24.98
2017-05-07T11:54:57.502Z,24.95
2017-05-07T11:56:07.740Z,24.93
2017-05-07T11:57:17.806Z,24.96
2017-05-07T11:58:27.449Z,25
2017-05-07T11:59:37.064Z,25
2017-05-07T12:00:46.959Z,24.99
2017-05-07T12:01:56.579Z,24.93
2017-05-07T12:03:06.946Z,24.95
2017-05-07T12:04:17.157Z,25
2017-05-07T12:05:26.782Z,25.03
2017-05-07T12:06:36.395Z,24.9
2017-05-07T12:07:45.701Z,24.95
2017-05-07T12:08:56.026Z,24.93
2017-05-07T12:10:05.643Z,24.99
2017-05-07T12:11:15.551Z,24.91
2017-05-07T12:12:25.174Z,24.93
2017-05-07T12:13:34.800Z,24.93
2017-05-07T12:14:44.802Z,24.93
2017-05-07T12:15:55.014Z,24.88
2017-05-07T12:17:05.222Z,24.91
2017-05-07T12:18:15.438Z,24.93
2017-05-07T12:19:25.337Z,24.91
2017-05-07T12:20:35.340Z,24.93
2017-05-07T12:21:45.247Z,24.93
2017-05-07T12:22:55.473Z,24.91
2017-05-07T12:24:05.696Z,24.96
2017-05-07T12:25:14.991Z,24.95
2017-05-07T12:26:24.698Z,24.9
2017-05-07T12:27:34.325Z,24.78
2017-05-07T12:28:44.223Z,24.81
2017-05-07T12:29:54.117Z,24.81
2017-05-07T12:31:03.714Z,24.81
2017-05-07T12:32:13.743Z,24.83
2017-05-07T12:33:23.652Z,24.81
2017-05-07T12:34:33.298Z,24.78
2017-05-07T12:35:43.211Z,24.8
2017-05-07T12:36:53.126Z,24.87
2017-05-07T12:38:02.607Z,24.88
2017-05-07T12:39:12.234Z,24.83
2017-05-07T12:40:22.457Z,24.81
2017-05-07T12:41:32.065Z,24.85
2017-05-07T12:42:41.977Z,24.83
2017-05-07T12:43:51.723Z,24.8
2017-05-07T12:45:01.633Z,24.78
2017-05-07T12:46:11.550Z,24.77
2017-05-07T12:47:21.457Z,24.76
2017-05-07T12:48:31.358Z,24.73
2017-05-07T12:49:41.454Z,24.77
2017-05-07T12:50:51.658Z,24.78
2017-05-07T12:52:01.872Z,24.83
2017-05-07T12:53:12.097Z,24.84
2017-05-07T12:54:21.687Z,24.77
2017-05-07T12:55:31.744Z,24.81
2017-05-07T12:56:41.341Z,24.76
2017-05-07T12:57:51.570Z,24.8
2017-05-07T12:59:01.798Z,24.76
2017-05-07T13:00:11.704Z,24.76
2017-05-07T13:01:22.081Z,24.73
2017-05-07T13:02:32.301Z,24.78
2017-05-07T13:03:42.219Z,24.81
2017-05-07T13:04:52.501Z,24.8
2017-05-07T13:06:02.763Z,24.77
2017-05-07T13:07:12.821Z,24.78
2017-05-07T13:08:22.417Z,24.81
2017-05-07T13:09:32.659Z,24.8
2017-05-07T13:10:42.567Z,24.76
2017-05-07T13:11:52.172Z,24.76
2017-05-07T13:13:02.542Z,24.83
2017-05-07T13:14:12.455Z,24.84
2017-05-07T13:15:22.377Z,24.73
2017-05-07T13:16:31.985Z,24.8
2017-05-07T13:17:42.448Z,24.83
2017-05-07T13:18:52.222Z,24.76
2017-05-07T13:20:01.566Z,24.83
2017-05-07T13:21:11.803Z,24.8
2017-05-07T13:22:21.754Z,24.88
2017-05-07T13:23:31.377Z,24.81
2017-05-07T13:24:41.172Z,24.8
2017-05-07T13:25:51.575Z,24.77
2017-05-07T13:27:01.861Z,24.87
2017-05-07T13:28:11.495Z,24.84
2017-05-07T13:29:21.144Z,24.84
2017-05-07T13:30:31.968Z,24.84
2017-05-07T13:31:42.659Z,24.83
2017-05-07T13:32:53.266Z,24.83
2017-05-07T13:34:03.186Z,24.93
2017-05-07T13:35:12.824Z,24.8
2017-05-07T13:36:23.198Z,24.88
2017-05-07T13:37:32.814Z,24.78
2017-05-07T13:38:43.478Z,24.85
2017-05-07T13:39:53.828Z,24.88
2017-05-07T13:41:05.175Z,24.88
2017-05-07T13:42:16.041Z,24.88
2017-05-07T13:43:26.323Z,24.9
2017-05-07T13:44:38.298Z,24.93
2017-05-07T13:45:49.288Z,24.95
2017-05-07T13:46:59.575Z,24.88
2017-05-07T13:48:10.808Z,24.85
2017-05-07T13:49:20.731Z,24.85
2017-05-07T13:50:31.266Z,24.78
2017-05-07T13:51:41.660Z,24.85
2017-05-07T13:52:50.788Z,24.83
2017-05-07T13:54:01.301Z,24.81
2017-05-07T13:55:11.417Z,24.78
2017-05-07T13:56:22.061Z,24.84
2017-05-07T13:57:32.072Z,24.76
2017-05-07T13:58:42.320Z,24.8
2017-05-07T13:59:52.761Z,24.84
2017-05-07T14:01:02.470Z,24.81
2017-05-07T14:02:12.501Z,24.8
2017-05-07T14:03:23.372Z,24.83
2017-05-07T14:04:33.810Z,24.78
2017-05-07T14:05:44.352Z,24.67
2017-05-07T14:06:54.115Z,24.53
2017-05-07T14:08:04.692Z,24.37
2017-05-07T14:09:15.072Z,24.28
2017-05-07T14:10:25.374Z,24.09
2017-05-07T14:11:35.463Z,23.95
2017-05-07T14:12:45.144Z,23.83
2017-05-07T14:13:55.751Z,23.7
2017-05-07T14:15:05.392Z,23.61
2017-05-07T14:16:14.863Z,23.51
2017-05-07T14:17:25.606Z,23.5
2017-05-07T14:18:35.737Z,23.33
2017-05-07T14:19:45.887Z,23.4
2017-05-07T14:20:55.765Z,23.31
2017-05-07T14:22:05.779Z,23.22
2017-05-07T14:23:15.737Z,23.2
2017-05-07T14:24:25.714Z,23.13
2017-05-07T14:25:35.852Z,23.04
2017-05-07T14:26:46.476Z,22.97
2017-05-07T14:27:56.692Z,22.95
2017-05-07T14:29:07.021Z,22.83
2017-05-07T14:30:17.473Z,22.7
2017-05-07T14:31:27.706Z,22.65
2017-05-07T14:32:37.639Z,22.65
2017-05-07T14:33:47.948Z,22.57
2017-05-07T14:34:58.338Z,22.58
2017-05-07T14:36:08.332Z,22.65
2017-05-07T14:37:19.022Z,22.54
2017-05-07T14:38:29.321Z,22.51
2017-05-07T14:39:39.241Z,22.61
2017-05-07T14:40:49.627Z,22.6
2017-05-07T14:41:59.263Z,22.52
2017-05-07T14:43:08.363Z,22.4
2017-05-07T14:44:18.071Z,22.35
2017-05-07T14:45:28.394Z,22.45
2017-05-07T14:46:39.152Z,22.45
2017-05-07T14:47:48.779Z,22.49
2017-05-07T14:48:58.381Z,22.47
2017-05-07T14:50:08.519Z,22.4
2017-05-07T14:51:18.538Z,22.47
2017-05-07T14:52:28.071Z,22.43
2017-05-07T14:53:37.993Z,22.46
2017-05-07T14:54:46.980Z,22.39
2017-05-07T14:55:57.059Z,22.4
2017-05-07T14:57:06.127Z,22.3
2017-05-07T14:58:15.644Z,22.31
2017-05-07T14:59:25.880Z,22.25
2017-05-07T15:00:35.803Z,22.3
2017-05-07T15:01:45.478Z,22.3
2017-05-07T15:02:55.105Z,22.43
2017-05-07T15:04:05.520Z,22.45
2017-05-07T15:05:15.788Z,22.64
2017-05-07T15:06:25.416Z,22.68
2017-05-07T15:07:35.059Z,22.8